createdAt,value
2018-07-25T00:00:52.774Z,953.9
2018-07-25T00:01:52.767Z,953.89
2018-07-25T00:02:52.764Z,953.87
2018-07-25T00:03:52.760Z,953.88
2018-07-25T00:04:52.759Z,953.88
2018-07-25T00:05:52.756Z,953.89
2018-07-25T00:06:52.751Z,953.88
2018-07-25T00:07:52.750Z,953.88
2018-07-25T00:08:52.748Z,953.89
2018-07-25T00:09:52.746Z,953.89
2018-07-25T00:10:52.741Z,953.88
2018-07-25T00:11:52.742Z,953.87
2018-07-25T00:12:52.736Z,953.89
2018-07-25T00:13:52.732Z,953.86
2018-07-25T00:14:52.730Z,953.81
2018-07-25T00:15:52.727Z,953.85
2018-07-25T00:16:52.725Z,953.83
2018-07-25T00:17:52.722Z,953.86
2018-07-25T00:18:52.718Z,953.81
2018-07-25T00:19:52.716Z,953.8
2018-07-25T00:20:52.712Z,953.8
2018-07-25T00:21:52.711Z,953.82
2018-07-25T00:22:52.709Z,953.81
2018-07-25T00:23:52.709Z,953.85
2018-07-25T00:24:52.703Z,953.83
2018-07-25T00:25:52.701Z,953.82
2018-07-25T00:26:52.696Z,953.82
2018-07-25T00:27:52.693Z,953.83
2018-07-25T00:28:52.689Z,953.79
2018-07-25T00:29:52.688Z,953.84
2018-07-25T00:30:52.685Z,953.83
2018-07-25T00:31:52.681Z,953.85
2018-07-25T00:32:52.677Z,953.86
2018-07-25T00:33:52.676Z,953.84
2018-07-25T00:34:52.673Z,953.86
2018-07-25T00:35:52.669Z,953.86
2018-07-25T00:36:52.666Z,953.85
2018-07-25T00:37:52.664Z,953.84
2018-07-25T00:38:52.661Z,953.87
2018-07-25T00:39:52.658Z,953.84
2018-07-25T00:40:52.655Z,953.83
2018-07-25T00:41:52.652Z,953.84
2018-07-25T00:42:52.648Z,953.83
2018-07-25T00:43:52.644Z,953.85
2018-07-25T00:44:52.642Z,953.86
2018-07-25T00:45:52.639Z,953.83
2018-07-25T00:46:52.635Z,953.81
2018-07-25T00:47:52.632Z,953.8
2018-07-25T00:48:52.629Z,953.81
2018-07-25T00:49:52.627Z,953.83
2018-07-25T00:50:52.622Z,953.82
2018-07-25T00:51:52.623Z,953.82
2018-07-25T00:52:52.617Z,953.83
2018-07-25T00:53:52.612Z,953.88
2018-07-25T00:54:52.609Z,953.8
2018-07-25T00:55:52.606Z,953.82
2018-07-25T00:56:52.603Z,953.85
2018-07-25T00:57:52.599Z,953.79
2018-07-25T00:58:52.598Z,953.82
2018-07-25T00:59:52.593Z,953.82
2018-07-25T01:00:52.590Z,953.81
2018-07-25T01:01:52.587Z,953.78
2018-07-25T01:02:52.590Z,953.77
2018-07-25T01:03:52.580Z,953.79
2018-07-25T01:04:52.576Z,953.82
2018-07-25T01:05:52.573Z,953.8
2018-07-25T01:06:52.570Z,953.81
2018-07-25T01:07:52.565Z,953.83
2018-07-25T01:08:52.561Z,953.82
2018-07-25T01:09:52.560Z,953.8
2018-07-25T01:10:52.555Z,953.81
2018-07-25T01:11:52.551Z,953.86
2018-07-25T01:12:52.548Z,953.85
2018-07-25T01:13:52.545Z,953.9
2018-07-25T01:14:52.543Z,953.84
2018-07-25T01:15:52.538Z,953.84
2018-07-25T01:16:52.534Z,953.86
2018-07-25T01:17:52.530Z,953.82
2018-07-25T01:18:52.526Z,953.82
2018-07-25T01:19:52.525Z,953.82
2018-07-25T01:20:52.520Z,953.84
2018-07-25T01:21:52.516Z,953.82
2018-07-25T01:22:52.513Z,953.81
2018-07-25T01:23:52.508Z,953.82
2018-07-25T01:24:52.504Z,953.82
2018-07-25T01:25:52.500Z,953.81
2018-07-25T01:26:52.496Z,953.81
2018-07-25T01:27:52.494Z,953.79
2018-07-25T01:28:52.492Z,953.83
2018-07-25T01:29:52.487Z,953.82
2018-07-25T01:30:52.484Z,953.85
2018-07-25T01:31:52.478Z,953.83
2018-07-25T01:32:52.474Z,953.84
2018-07-25T01:33:52.471Z,953.82
2018-07-25T01:34:52.471Z,953.83
2018-07-25T01:35:52.466Z,953.84
2018-07-25T01:36:52.460Z,953.81
2018-07-25T01:37:52.457Z,953.83
2018-07-25T01:38:52.451Z,953.81
2018-07-25T01:39:52.451Z,953.8
2018-07-25T01:40:52.444Z,953.81
2018-07-25T01:41:52.440Z,953.78
2018-07-25T01:42:52.436Z,953.78
2018-07-25T01:43:52.434Z,953.77
2018-07-25T01:44:52.429Z,953.76
2018-07-25T01:45:52.425Z,953.78
2018-07-25T01:46:52.424Z,953.75
2018-07-25T01:47:52.418Z,953.8
2018-07-25T01:48:52.414Z,953.79
2018-07-25T01:49:52.415Z,953.8
2018-07-25T01:50:52.436Z,953.81
2018-07-25T01:51:52.402Z,953.79
2018-07-25T01:52:52.397Z,953.81
2018-07-25T01:53:52.394Z,953.79
2018-07-25T01:54:52.393Z,953.82
2018-07-25T01:55:52.387Z,953.81
2018-07-25T01:56:52.383Z,953.8
2018-07-25T01:57:52.379Z,953.83
2018-07-25T01:58:52.375Z,953.82
2018-07-25T01:59:52.369Z,953.82
2018-07-25T02:00:52.366Z,953.84
2018-07-25T02:01:52.361Z,953.8
2018-07-25T02:02:52.358Z,953.82
2018-07-25T02:03:52.355Z,953.8
2018-07-25T02:04:52.350Z,953.82
2018-07-25T02:05:52.346Z,953.78
2018-07-25T02:06:52.341Z,953.78
2018-07-25T02:07:52.337Z,953.78
2018-07-25T02:08:52.335Z,953.78
2018-07-25T02:09:52.331Z,953.76
2018-07-25T02:10:52.326Z,953.72
2018-07-25T02:11:52.330Z,953.77
2018-07-25T02:12:52.317Z,953.76
2018-07-25T02:13:52.313Z,953.77
2018-07-25T02:14:52.309Z,953.79
2018-07-25T02:15:52.305Z,953.84
2018-07-25T02:16:52.302Z,953.77
2018-07-25T02:17:52.297Z,953.84
2018-07-25T02:18:52.293Z,953.85
2018-07-25T02:19:52.288Z,953.8
2018-07-25T02:20:52.285Z,953.82
2018-07-25T02:21:52.280Z,953.85
2018-07-25T02:22:52.276Z,953.88
2018-07-25T02:23:52.272Z,953.84
2018-07-25T02:24:52.269Z,953.82
2018-07-25T02:25:52.262Z,953.85
2018-07-25T02:26:52.259Z,953.87
2018-07-25T02:27:52.255Z,953.87
2018-07-25T02:28:52.249Z,953.87
2018-07-25T02:29:52.245Z,953.85
2018-07-25T02:30:52.242Z,953.87
2018-07-25T02:31:52.242Z,953.9
2018-07-25T02:32:52.232Z,953.87
2018-07-25T02:33:52.230Z,953.92
2018-07-25T02:34:52.226Z,953.91
2018-07-25T02:35:52.225Z,953.89
2018-07-25T02:36:52.220Z,953.93
2018-07-25T02:37:52.212Z,953.94
2018-07-25T02:38:52.210Z,953.91
2018-07-25T02:39:52.202Z,953.89
2018-07-25T02:40:52.199Z,953.92
2018-07-25T02:41:52.200Z,953.94
2018-07-25T02:42:52.191Z,953.93
2018-07-25T02:43:52.285Z,953.94
2018-07-25T02:44:52.181Z,953.92
2018-07-25T02:45:52.177Z,953.94
2018-07-25T02:46:52.173Z,953.94
2018-07-25T02:47:52.169Z,953.94
2018-07-25T02:48:52.166Z,953.96
2018-07-25T02:49:52.163Z,953.94
2018-07-25T02:50:52.155Z,953.97
2018-07-25T02:51:52.149Z,953.98
2018-07-25T02:52:52.146Z,953.97
2018-07-25T02:53:52.142Z,953.97
2018-07-25T02:54:52.137Z,953.98
2018-07-25T02:55:52.137Z,954.02
2018-07-25T02:56:52.194Z,953.98
2018-07-25T02:57:52.123Z,953.99
2018-07-25T02:58:52.119Z,953.99
2018-07-25T02:59:52.117Z,953.98
2018-07-25T03:00:52.114Z,954.02
2018-07-25T03:01:52.106Z,954.02
2018-07-25T03:02:52.101Z,954
2018-07-25T03:03:52.098Z,954.01
2018-07-25T03:04:52.093Z,954.02
2018-07-25T03:05:52.088Z,954.01
2018-07-25T03:06:52.084Z,954.03
2018-07-25T03:07:52.079Z,954.05
2018-07-25T03:08:52.107Z,954.04
2018-07-25T03:09:52.068Z,954.05
2018-07-25T03:10:52.065Z,954.09
2018-07-25T03:11:52.060Z,954.06
2018-07-25T03:12:52.055Z,954.03
2018-07-25T03:13:52.061Z,954.04
2018-07-25T03:14:52.046Z,954.05
2018-07-25T03:15:52.047Z,954.08
2018-07-25T03:16:52.101Z,954.08
2018-07-25T03:17:52.036Z,954.09
2018-07-25T03:18:52.030Z,954.08
2018-07-25T03:19:52.026Z,954.1
2018-07-25T03:20:52.021Z,954.11
2018-07-25T03:21:52.016Z,954.1
2018-07-25T03:22:52.011Z,954.09
2018-07-25T03:23:52.006Z,954.14
2018-07-25T03:24:52.001Z,954.15
2018-07-25T03:25:51.996Z,954.15
2018-07-25T03:26:51.992Z,954.13
2018-07-25T03:27:51.988Z,954.18
2018-07-25T03:28:51.983Z,954.13
2018-07-25T03:29:51.978Z,954.17
2018-07-25T03:30:51.973Z,954.16
2018-07-25T03:31:51.969Z,954.16
2018-07-25T03:32:51.966Z,954.17
2018-07-25T03:33:51.960Z,954.17
2018-07-25T03:34:51.954Z,954.15
2018-07-25T03:35:51.954Z,954.18
2018-07-25T03:36:51.946Z,954.19
2018-07-25T03:37:51.941Z,954.16
2018-07-25T03:38:51.936Z,954.19
2018-07-25T03:39:51.933Z,954.15
2018-07-25T03:40:51.928Z,954.17
2018-07-25T03:41:51.923Z,954.17
2018-07-25T03:42:51.924Z,954.16
2018-07-25T03:43:51.913Z,954.16
2018-07-25T03:44:51.908Z,954.16
2018-07-25T03:45:51.903Z,954.17
2018-07-25T03:46:51.899Z,954.17
2018-07-25T03:47:51.894Z,954.14
2018-07-25T03:48:51.891Z,954.12
2018-07-25T03:49:51.885Z,954.13
2018-07-25T03:50:51.880Z,954.11
2018-07-25T03:51:51.875Z,954.1
2018-07-25T03:52:51.870Z,954.12
2018-07-25T03:53:51.867Z,954.12
2018-07-25T03:54:51.862Z,954.1
2018-07-25T03:55:51.860Z,954.11
2018-07-25T03:56:51.851Z,954.11
2018-07-25T03:57:51.847Z,954.13
2018-07-25T03:58:51.843Z,954.16
2018-07-25T03:59:51.839Z,954.14
2018-07-25T04:00:51.835Z,954.19
2018-07-25T04:01:51.872Z,954.18
2018-07-25T04:02:51.825Z,954.23
2018-07-25T04:03:51.818Z,954.24
2018-07-25T04:04:51.814Z,954.22
2018-07-25T04:05:51.813Z,954.24
2018-07-25T04:06:51.805Z,954.24
2018-07-25T04:07:51.800Z,954.29
2018-07-25T04:08:51.797Z,954.28
2018-07-25T04:09:51.791Z,954.29
2018-07-25T04:10:51.789Z,954.26
2018-07-25T04:11:51.787Z,954.27
2018-07-25T04:12:51.778Z,954.3
2018-07-25T04:13:51.774Z,954.31
2018-07-25T04:14:51.769Z,954.33
2018-07-25T04:15:51.766Z,954.33
2018-07-25T04:16:51.761Z,954.33
2018-07-25T04:17:51.758Z,954.34
2018-07-25T04:18:51.753Z,954.4
2018-07-25T04:19:51.749Z,954.38
2018-07-25T04:20:51.749Z,954.42
2018-07-25T04:21:51.739Z,954.38
2018-07-25T04:22:51.736Z,954.41
2018-07-25T04:23:51.734Z,954.4
2018-07-25T04:24:51.726Z,954.4
2018-07-25T04:25:51.721Z,954.45
2018-07-25T04:26:51.718Z,954.39
2018-07-25T04:27:51.714Z,954.4
2018-07-25T04:28:51.709Z,954.39
2018-07-25T04:29:51.704Z,954.39
2018-07-25T04:30:51.699Z,954.39
2018-07-25T04:31:51.696Z,954.41
2018-07-25T04:32:51.693Z,954.43
2018-07-25T04:33:51.688Z,954.43
2018-07-25T04:34:51.717Z,954.45
2018-07-25T04:35:51.679Z,954.41
2018-07-25T04:36:51.674Z,954.43
2018-07-25T04:37:51.670Z,954.42
2018-07-25T04:38:51.666Z,954.42
2018-07-25T04:39:51.662Z,954.47
2018-07-25T04:40:51.657Z,954.45
2018-07-25T04:41:51.652Z,954.44
2018-07-25T04:42:51.649Z,954.45
2018-07-25T04:43:51.645Z,954.47
2018-07-25T04:44:51.641Z,954.46
2018-07-25T04:45:51.637Z,954.55
2018-07-25T04:46:51.636Z,954.5
2018-07-25T04:47:51.630Z,954.53
2018-07-25T04:48:51.623Z,954.57
2018-07-25T04:49:51.619Z,954.62
2018-07-25T04:50:51.617Z,954.59
2018-07-25T04:51:51.610Z,954.62
2018-07-25T04:52:51.608Z,954.62
2018-07-25T04:53:51.603Z,954.6
2018-07-25T04:54:51.599Z,954.62
2018-07-25T04:55:51.594Z,954.64
2018-07-25T04:56:51.594Z,954.62
2018-07-25T04:57:51.587Z,954.62
2018-07-25T04:58:51.581Z,954.62
2018-07-25T04:59:51.578Z,954.63
2018-07-25T05:00:51.574Z,954.58
2018-07-25T05:01:51.570Z,954.63
2018-07-25T05:02:51.566Z,954.69
2018-07-25T05:03:51.562Z,954.63
2018-07-25T05:04:51.559Z,954.65
2018-07-25T05:05:51.555Z,954.64
2018-07-25T05:06:51.553Z,954.69
2018-07-25T05:07:51.546Z,954.69
2018-07-25T05:08:51.544Z,954.75
2018-07-25T05:09:51.544Z,954.71
2018-07-25T05:10:51.536Z,954.79
2018-07-25T05:11:51.532Z,954.74
2018-07-25T05:12:51.528Z,954.76
2018-07-25T05:13:51.524Z,954.74
2018-07-25T05:14:51.521Z,954.76
2018-07-25T05:15:51.519Z,954.72
2018-07-25T05:16:51.513Z,954.75
2018-07-25T05:17:51.564Z,954.75
2018-07-25T05:18:51.508Z,954.76
2018-07-25T05:19:51.505Z,954.74
2018-07-25T05:20:51.501Z,954.72
2018-07-25T05:21:51.497Z,954.71
2018-07-25T05:22:51.494Z,954.72
2018-07-25T05:23:51.491Z,954.75
2018-07-25T05:24:51.489Z,954.76
2018-07-25T05:25:51.485Z,954.74
2018-07-25T05:26:51.483Z,954.74
2018-07-25T05:27:51.479Z,954.73
2018-07-25T05:28:51.476Z,954.75
2018-07-25T05:29:51.473Z,954.76
2018-07-25T05:30:51.470Z,954.79
2018-07-25T05:31:51.466Z,954.85
2018-07-25T05:32:51.470Z,954.79
2018-07-25T05:33:51.460Z,954.8
2018-07-25T05:34:51.459Z,954.81
2018-07-25T05:35:51.455Z,954.79
2018-07-25T05:36:51.452Z,954.81
2018-07-25T05:37:51.450Z,954.82
2018-07-25T05:38:51.447Z,954.85
2018-07-25T05:39:51.445Z,954.86
2018-07-25T05:40:51.441Z,954.85
2018-07-25T05:41:51.439Z,954.84
2018-07-25T05:42:51.439Z,954.88
2018-07-25T05:43:51.480Z,954.86
2018-07-25T05:44:51.431Z,954.89
2018-07-25T05:45:51.428Z,954.89
2018-07-25T05:46:51.424Z,954.89
2018-07-25T05:47:51.423Z,954.87
2018-07-25T05:48:51.420Z,954.88
2018-07-25T05:49:51.419Z,954.87
2018-07-25T05:50:51.412Z,954.88
2018-07-25T05:51:51.411Z,954.89
2018-07-25T05:52:51.410Z,954.91
2018-07-25T05:53:51.406Z,954.92
2018-07-25T05:54:51.404Z,954.88
2018-07-25T05:55:51.401Z,954.88
2018-07-25T05:56:51.482Z,954.91
2018-07-25T05:57:51.396Z,954.9
2018-07-25T05:58:51.394Z,954.91
2018-07-25T05:59:51.392Z,954.9
2018-07-25T06:00:51.390Z,954.88
2018-07-25T06:01:51.387Z,954.89
2018-07-25T06:02:51.435Z,954.88
2018-07-25T06:03:51.384Z,954.91
2018-07-25T06:04:51.380Z,954.9
2018-07-25T06:05:51.444Z,954.87
2018-07-25T06:06:51.376Z,954.85
2018-07-25T06:07:51.375Z,954.86
2018-07-25T06:08:51.371Z,954.85
2018-07-25T06:09:51.370Z,954.87
2018-07-25T06:10:51.368Z,954.84
2018-07-25T06:11:51.366Z,954.82
2018-07-25T06:12:51.444Z,954.81
2018-07-25T06:13:51.363Z,954.83
2018-07-25T06:14:51.362Z,954.87
2018-07-25T06:15:51.357Z,954.86
2018-07-25T06:16:51.355Z,954.85
2018-07-25T06:17:51.355Z,954.93
2018-07-25T06:18:51.352Z,954.86
2018-07-25T06:19:51.351Z,954.9
2018-07-25T06:20:51.349Z,954.91
2018-07-25T06:21:51.347Z,954.89
2018-07-25T06:22:51.346Z,954.91
2018-07-25T06:23:51.343Z,954.92
2018-07-25T06:24:51.341Z,954.89
2018-07-25T06:25:51.393Z,954.89
2018-07-25T06:26:51.339Z,954.84
2018-07-25T06:27:51.337Z,954.8
2018-07-25T06:28:51.335Z,954.8
2018-07-25T06:29:51.335Z,954.82
2018-07-25T06:30:51.332Z,954.81
2018-07-25T06:31:51.331Z,954.85
2018-07-25T06:32:51.331Z,954.82
2018-07-25T06:33:51.329Z,954.88
2018-07-25T06:34:51.440Z,954.86
2018-07-25T06:35:51.327Z,954.86
2018-07-25T06:36:51.326Z,954.88
2018-07-25T06:37:51.346Z,954.86
2018-07-25T06:38:51.324Z,954.92
2018-07-25T06:39:51.322Z,954.87
2018-07-25T06:40:51.324Z,954.88
2018-07-25T06:41:51.325Z,954.85
2018-07-25T06:42:51.323Z,954.85
2018-07-25T06:43:51.320Z,954.86
2018-07-25T06:44:51.318Z,954.86
2018-07-25T06:45:51.319Z,954.85
2018-07-25T06:46:51.317Z,954.89
2018-07-25T06:47:51.316Z,954.87
2018-07-25T06:48:51.317Z,954.87
2018-07-25T06:49:51.315Z,954.83
2018-07-25T06:50:51.370Z,954.87
2018-07-25T06:51:51.314Z,954.88
2018-07-25T06:52:51.314Z,954.87
2018-07-25T06:53:51.313Z,954.85
2018-07-25T06:54:51.317Z,954.88
2018-07-25T06:55:51.314Z,954.9
2018-07-25T06:56:51.314Z,954.94
2018-07-25T06:57:51.320Z,954.98
2018-07-25T06:58:51.317Z,954.96
2018-07-25T06:59:51.318Z,954.91
2018-07-25T07:00:51.320Z,954.93
2018-07-25T07:01:51.320Z,954.99
2018-07-25T07:02:51.323Z,954.97
2018-07-25T07:03:51.326Z,954.99
2018-07-25T07:04:51.331Z,954.98
2018-07-25T07:05:51.335Z,954.97
2018-07-25T07:06:51.345Z,954.97
2018-07-25T07:07:51.338Z,954.97
2018-07-25T07:08:51.341Z,954.97
2018-07-25T07:09:51.344Z,954.94
2018-07-25T07:10:51.350Z,954.95
2018-07-25T07:11:51.353Z,955.01
2018-07-25T07:12:51.359Z,955.03
2018-07-25T07:13:51.363Z,955.07
2018-07-25T07:14:51.368Z,955.06
2018-07-25T07:15:51.376Z,955.01
2018-07-25T07:16:51.382Z,955.01
2018-07-25T07:17:51.386Z,955
2018-07-25T07:18:51.393Z,955.02
2018-07-25T07:19:51.401Z,955.01
2018-07-25T07:20:51.406Z,955.05
2018-07-25T07:21:51.413Z,955.02
2018-07-25T07:22:51.420Z,954.99
2018-07-25T07:23:51.428Z,955.04
2018-07-25T07:24:51.434Z,955.03
2018-07-25T07:25:51.460Z,955.08
2018-07-25T07:26:51.450Z,955.03
2018-07-25T07:27:51.461Z,955
2018-07-25T07:28:51.465Z,955
2018-07-25T07:29:51.478Z,955.02
2018-07-25T07:30:51.483Z,955.02
2018-07-25T07:31:51.492Z,955.07
2018-07-25T07:32:51.499Z,955.09
2018-07-25T07:33:51.512Z,955.08
2018-07-25T07:34:51.519Z,955.1
2018-07-25T07:35:51.528Z,955.12
2018-07-25T07:36:51.538Z,955.14
2018-07-25T07:37:51.650Z,955.13
2018-07-25T07:38:51.557Z,955.13
2018-07-25T07:39:51.566Z,955.17
2018-07-25T07:40:51.581Z,955.26
2018-07-25T07:41:51.587Z,955.26
2018-07-25T07:42:51.597Z,955.3
2018-07-25T07:43:51.607Z,955.33
2018-07-25T07:44:51.617Z,955.33
2018-07-25T07:45:51.626Z,955.36
2018-07-25T07:46:51.637Z,955.41
2018-07-25T07:47:51.646Z,955.39
2018-07-25T07:48:51.658Z,955.41
2018-07-25T07:49:51.668Z,955.46
2018-07-25T07:50:51.677Z,955.52
2018-07-25T07:51:51.688Z,955.65
2018-07-25T07:52:51.699Z,955.69
2018-07-25T07:53:51.766Z,955.77
2018-07-25T07:54:51.719Z,955.76
2018-07-25T07:55:51.729Z,955.64
2018-07-25T07:56:51.742Z,955.45
2018-07-25T07:57:51.751Z,955.18
2018-07-25T07:58:51.763Z,955.07
2018-07-25T07:59:51.769Z,955.06
2018-07-25T08:00:51.780Z,955.1
2018-07-25T08:01:51.789Z,955.04
2018-07-25T08:02:51.798Z,955.07
2018-07-25T08:03:51.809Z,955.05
2018-07-25T08:04:51.840Z,955.03
2018-07-25T08:05:51.828Z,954.99
2018-07-25T08:06:51.836Z,954.98
2018-07-25T08:07:51.847Z,954.96
2018-07-25T08:08:51.853Z,954.98
2018-07-25T08:09:51.862Z,955.03
2018-07-25T08:10:51.872Z,955
2018-07-25T08:11:51.882Z,955.07
2018-07-25T08:12:51.892Z,955.1
2018-07-25T08:13:51.897Z,955.04
2018-07-25T08:14:51.906Z,955.07
2018-07-25T08:15:51.914Z,955.04
2018-07-25T08:16:51.923Z,955.12
2018-07-25T08:17:51.988Z,955.08
2018-07-25T08:18:51.938Z,955.07
2018-07-25T08:19:51.946Z,955.1
2018-07-25T08:20:51.954Z,955.08
2018-07-25T08:21:51.961Z,955.1
2018-07-25T08:22:51.969Z,955.06
2018-07-25T08:23:51.975Z,955.03
2018-07-25T08:24:51.984Z,955.05
2018-07-25T08:25:51.989Z,955.1
2018-07-25T08:26:51.997Z,955.13
2018-07-25T08:27:52.004Z,955.12
2018-07-25T08:28:52.011Z,955.14
2018-07-25T08:29:52.021Z,955.11
2018-07-25T08:30:52.024Z,955.14
2018-07-25T08:31:52.030Z,955.13
2018-07-25T08:32:52.040Z,955.13
2018-07-25T08:33:52.045Z,955.12
2018-07-25T08:34:52.131Z,955.11
2018-07-25T08:35:52.057Z,955.19
2018-07-25T08:36:52.063Z,955.16
2018-07-25T08:37:52.069Z,955.18
2018-07-25T08:38:52.076Z,955.19
2018-07-25T08:39:52.081Z,955.18
2018-07-25T08:40:52.088Z,955.14
2018-07-25T08:41:52.094Z,955.18
2018-07-25T08:42:52.101Z,955.17
2018-07-25T08:43:52.106Z,955.09
2018-07-25T08:44:52.113Z,955.11
2018-07-25T08:45:52.119Z,955.09
2018-07-25T08:46:52.168Z,955.11
2018-07-25T08:47:52.130Z,955.06
2018-07-25T08:48:52.134Z,955.15
2018-07-25T08:49:52.141Z,955.13
2018-07-25T08:50:52.153Z,955.16
2018-07-25T08:51:52.152Z,955.2
2018-07-25T08:52:52.234Z,955.26
2018-07-25T08:53:52.169Z,955.26
2018-07-25T08:54:52.175Z,955.31
2018-07-25T08:55:52.174Z,955.23
2018-07-25T08:56:52.177Z,955.27
2018-07-25T08:57:52.272Z,955.27
2018-07-25T08:58:52.188Z,955.21
2018-07-25T08:59:52.201Z,955.28
2018-07-25T09:00:52.197Z,955.22
2018-07-25T09:01:52.327Z,955.2
2018-07-25T09:02:52.208Z,955.22
2018-07-25T09:03:52.213Z,955.21
2018-07-25T09:04:52.218Z,955.19
2018-07-25T09:05:52.225Z,955.22
2018-07-25T09:06:52.228Z,955.23
2018-07-25T09:07:52.233Z,955.22
2018-07-25T09:08:52.237Z,955.19
2018-07-25T09:09:52.245Z,955.2
2018-07-25T09:10:52.246Z,955.16
2018-07-25T09:11:52.252Z,955.16
2018-07-25T09:12:52.257Z,955.13
2018-07-25T09:13:52.261Z,955.16
2018-07-25T09:14:52.266Z,955.16
2018-07-25T09:15:52.270Z,955.11
2018-07-25T09:16:52.334Z,955.11
2018-07-25T09:17:52.284Z,955.1
2018-07-25T09:18:52.284Z,955.09
2018-07-25T09:19:52.332Z,955.11
2018-07-25T09:20:52.295Z,955.17
2018-07-25T09:21:52.299Z,955.15
2018-07-25T09:22:52.308Z,955.11
2018-07-25T09:23:52.309Z,955.1
2018-07-25T09:24:52.316Z,955.05
2018-07-25T09:25:52.319Z,955.12
2018-07-25T09:26:52.324Z,955.13
2018-07-25T09:27:52.328Z,955.08
2018-07-25T09:28:52.333Z,955.14
2018-07-25T09:29:52.337Z,955.17
2018-07-25T09:30:52.343Z,955.15
2018-07-25T09:31:52.348Z,955.13
2018-07-25T09:32:52.352Z,955.18
2018-07-25T09:33:52.370Z,955.15
2018-07-25T09:34:52.362Z,955.16
2018-07-25T09:35:52.366Z,955.1
2018-07-25T09:36:52.372Z,955.12
2018-07-25T09:37:52.377Z,955.12
2018-07-25T09:38:52.381Z,955.07
2018-07-25T09:39:52.386Z,955.13
2018-07-25T09:40:52.437Z,955.14
2018-07-25T09:41:52.395Z,955.1
2018-07-25T09:42:52.401Z,955.08
2018-07-25T09:43:52.405Z,955.15
2018-07-25T09:44:52.410Z,955.14
2018-07-25T09:45:52.416Z,955.13
2018-07-25T09:46:52.475Z,955.13
2018-07-25T09:47:52.424Z,955.08
2018-07-25T09:48:52.431Z,955.13
2018-07-25T09:49:52.436Z,955.11
2018-07-25T09:50:52.440Z,955.06
2018-07-25T09:51:52.445Z,955.09
2018-07-25T09:52:52.512Z,955.1
2018-07-25T09:53:52.455Z,955.1
2018-07-25T09:54:52.461Z,955.12
2018-07-25T09:55:52.481Z,955.09
2018-07-25T09:56:52.470Z,955.08
2018-07-25T09:57:52.473Z,955.08
2018-07-25T09:58:52.520Z,955.11
2018-07-25T09:59:52.483Z,955.13
2018-07-25T10:00:52.550Z,955.12
2018-07-25T10:01:52.495Z,955.05
2018-07-25T10:02:52.498Z,955.06
2018-07-25T10:03:52.502Z,955.03
2018-07-25T10:04:52.511Z,955.03
2018-07-25T10:05:52.521Z,955.01
2018-07-25T10:06:52.516Z,955.04
2018-07-25T10:07:52.523Z,955.02
2018-07-25T10:08:52.551Z,955.03
2018-07-25T10:09:52.540Z,955.04
2018-07-25T10:10:52.535Z,955.02
2018-07-25T10:11:52.540Z,955.06
2018-07-25T10:12:52.552Z,955.06
2018-07-25T10:13:52.550Z,955.03
2018-07-25T10:14:52.560Z,955.03
2018-07-25T10:15:52.559Z,955.03
2018-07-25T10:16:52.564Z,955.03
2018-07-25T10:17:52.569Z,955.05
2018-07-25T10:18:52.589Z,955.02
2018-07-25T10:19:52.578Z,954.98
2018-07-25T10:20:52.699Z,955.02
2018-07-25T10:21:52.587Z,955.01
2018-07-25T10:22:52.593Z,954.96
2018-07-25T10:23:52.595Z,954.96
2018-07-25T10:24:52.601Z,955.01
2018-07-25T10:25:52.607Z,954.89
2018-07-25T10:26:52.625Z,954.97
2018-07-25T10:27:52.615Z,954.9
2018-07-25T10:28:52.621Z,954.98
2018-07-25T10:29:52.626Z,954.93
2018-07-25T10:30:52.637Z,954.95
2018-07-25T10:31:52.634Z,954.91
2018-07-25T10:32:52.704Z,954.94
2018-07-25T10:33:52.653Z,954.95
2018-07-25T10:34:52.648Z,954.95
2018-07-25T10:35:52.652Z,954.95
2018-07-25T10:36:52.658Z,954.92
2018-07-25T10:37:52.663Z,954.94
2018-07-25T10:38:52.686Z,954.93
2018-07-25T10:39:52.672Z,954.89
2018-07-25T10:40:52.678Z,954.89
2018-07-25T10:41:52.683Z,954.87
2018-07-25T10:42:52.688Z,954.94
2018-07-25T10:43:52.693Z,954.87
2018-07-25T10:44:52.702Z,954.87
2018-07-25T10:45:52.769Z,954.85
2018-07-25T10:46:52.708Z,954.78
2018-07-25T10:47:52.714Z,954.82
2018-07-25T10:48:52.806Z,954.75
2018-07-25T10:49:52.724Z,954.78
2018-07-25T10:50:52.728Z,954.78
2018-07-25T10:51:52.735Z,954.78
2018-07-25T10:52:52.741Z,954.8
2018-07-25T10:53:52.745Z,954.79
2018-07-25T10:54:52.754Z,954.81
2018-07-25T10:55:52.804Z,954.82
2018-07-25T10:56:52.762Z,954.8
2018-07-25T10:57:52.767Z,954.84
2018-07-25T10:58:52.773Z,954.85
2018-07-25T10:59:52.779Z,954.83
2018-07-25T11:00:52.785Z,954.85
2018-07-25T11:01:52.790Z,954.86
2018-07-25T11:02:52.797Z,954.84
2018-07-25T11:03:52.822Z,954.85
2018-07-25T11:04:52.806Z,954.88
2018-07-25T11:05:52.811Z,954.86
2018-07-25T11:06:52.817Z,954.85
2018-07-25T11:07:52.822Z,954.85
2018-07-25T11:08:52.828Z,954.83
2018-07-25T11:09:52.833Z,954.81
2018-07-25T11:10:52.837Z,954.82
2018-07-25T11:11:52.842Z,954.83
2018-07-25T11:12:52.847Z,954.75
2018-07-25T11:13:52.853Z,954.8
2018-07-25T11:14:52.860Z,954.77
2018-07-25T11:15:52.863Z,954.72
2018-07-25T11:16:52.869Z,954.73
2018-07-25T11:17:52.873Z,954.79
2018-07-25T11:18:52.879Z,954.75
2018-07-25T11:19:52.884Z,954.76
2018-07-25T11:20:52.889Z,954.8
2018-07-25T11:21:52.894Z,954.77
2018-07-25T11:22:52.924Z,954.79
2018-07-25T11:23:52.906Z,954.73
2018-07-25T11:24:52.910Z,954.72
2018-07-25T11:25:52.916Z,954.88
2018-07-25T11:26:52.922Z,954.8
2018-07-25T11:27:52.929Z,954.74
2018-07-25T11:28:52.935Z,954.77
2018-07-25T11:29:52.939Z,954.75
2018-07-25T11:30:52.944Z,954.73
2018-07-25T11:31:52.951Z,954.72
2018-07-25T11:32:53.082Z,954.78
2018-07-25T11:33:52.960Z,954.78
2018-07-25T11:34:52.968Z,954.75
2018-07-25T11:35:52.973Z,954.84
2018-07-25T11:36:52.979Z,954.83
2018-07-25T11:37:52.981Z,954.78
2018-07-25T11:38:52.989Z,954.81
2018-07-25T11:39:52.994Z,954.76
2018-07-25T11:40:53.003Z,954.76
2018-07-25T11:41:53.004Z,954.76
2018-07-25T11:42:53.011Z,954.73
2018-07-25T11:43:53.017Z,954.77
2018-07-25T11:44:53.021Z,954.79
2018-07-25T11:45:53.026Z,954.76
2018-07-25T11:46:53.033Z,954.72
2018-07-25T11:47:53.057Z,954.65
2018-07-25T11:48:53.044Z,954.62
2018-07-25T11:49:53.055Z,954.63
2018-07-25T11:50:53.055Z,954.6
2018-07-25T11:51:53.059Z,954.63
2018-07-25T11:52:53.066Z,954.68
2018-07-25T11:53:53.073Z,954.71
2018-07-25T11:54:53.078Z,954.7
2018-07-25T11:55:53.083Z,954.69
2018-07-25T11:56:53.089Z,954.71
2018-07-25T11:57:53.095Z,954.74
2018-07-25T11:58:53.107Z,954.74
2018-07-25T11:59:53.107Z,954.7
2018-07-25T12:00:53.111Z,954.66
2018-07-25T12:01:53.117Z,954.6
2018-07-25T12:02:53.121Z,954.64
2018-07-25T12:03:53.128Z,954.6
2018-07-25T12:04:53.133Z,954.62
2018-07-25T12:05:53.139Z,954.61
2018-07-25T12:06:53.143Z,954.59
2018-07-25T12:07:53.148Z,954.57
2018-07-25T12:08:53.154Z,954.54
2018-07-25T12:09:53.158Z,954.61
2018-07-25T12:10:53.165Z,954.67
2018-07-25T12:11:53.169Z,954.64
2018-07-25T12:12:53.191Z,954.57
2018-07-25T12:13:53.180Z,954.63
2018-07-25T12:14:53.187Z,954.59
2018-07-25T12:15:53.197Z,954.63
2018-07-25T12:16:53.198Z,954.6
2018-07-25T12:17:53.203Z,954.6
2018-07-25T12:18:53.211Z,954.56
2018-07-25T12:19:53.214Z,954.54
2018-07-25T12:20:53.218Z,954.62
2018-07-25T12:21:53.225Z,954.57
2018-07-25T12:22:53.232Z,954.56
2018-07-25T12:23:53.236Z,954.58
2018-07-25T12:24:53.240Z,954.62
2018-07-25T12:25:53.246Z,954.58
2018-07-25T12:26:53.293Z,954.58
2018-07-25T12:27:53.257Z,954.55
2018-07-25T12:28:53.263Z,954.56
2018-07-25T12:29:53.268Z,954.57
2018-07-25T12:30:53.284Z,954.58